Time;durP1;ratioP1;P1;durP2;ratioP2;P2;SDS_P1;SDS_P2;PMS_P1;PMS_P2;Temp;Humidity;BMP_temperature;BMP_pressure;BME280_temperature;BME280_humidity;BME280_pressure;Samples;Min_cycle;Max_cycle;Signal;HPM_P1;HPM_P2
2021/05/09 00:01:06;;;;;;;72.33;41.53;;;;;;;;;;5015363;28;20174;-82
2021/05/09 00:03:31;;;;;;;72.27;44.53;;;;;;;;;;5014880;28;20220;-82
2021/05/09 00:05:57;;;;;;;78.43;49.37;;;;;;;;;;5014637;28;20173;-82
2021/05/09 00:08:22;;;;;;;69.20;47.37;;;;;;;;;;5014986;28;20173;-82
2021/05/09 00:10:47;;;;;;;74.93;45.47;;;;;;;;;;5014152;28;20588;-82
2021/05/09 00:13:13;;;;;;;78.50;49.70;;;;;;;;;;5014416;28;20556;-82
2021/05/09 00:15:38;;;;;;;66.53;44.37;;;;;;;;;;5013984;28;20175;-81
2021/05/09 00:18:04;;;;;;;63.97;40.60;;;;;;;;;;5014549;28;20592;-82
2021/05/09 00:20:30;;;;;;;67.40;39.53;;;;;;;;;;5013918;28;20229;-82
2021/05/09 00:22:55;;;;;;;62.83;39.60;;;;;;;;;;5013563;28;20169;-81
2021/05/09 00:25:21;;;;;;;70.17;39.77;;;;;;;;;;5013727;28;20196;-81
2021/05/09 00:27:46;;;;;;;72.40;42.00;;;;;;;;;;5013381;28;20543;-81
2021/05/09 00:30:12;;;;;;;67.83;39.73;;;;;;;;;;5012962;28;20172;-81
2021/05/09 00:32:37;;;;;;;71.30;39.87;;;;;;;;;;5013324;28;20260;-81
2021/05/09 00:35:04;;;;;;;62.33;38.37;;;;;;;;;;5013205;28;20256;-81
2021/05/09 00:37:29;;;;;;;63.93;39.30;;;;;;;;;;5013441;28;20177;-81
2021/05/09 00:39:54;;;;;;;65.50;39.37;;;;;;;;;;5013844;28;20559;-81
2021/05/09 00:42:20;;;;;;;67.47;39.77;;;;;;;;;;5013206;28;20173;-81
2021/05/09 00:44:45;;;;;;;62.17;37.83;;;;;;;;;;5012933;28;20173;-81
2021/05/09 00:47:12;;;;;;;64.23;39.40;;;;;;;;;;5012989;28;20169;-81
2021/05/09 00:49:38;;;;;;;63.60;38.63;;;;;;;;;;5013165;28;20188;-81
2021/05/09 00:52:04;;;;;;;64.10;36.77;;;;;;;;;;5013454;28;20259;-81
2021/05/09 00:54:30;;;;;;;63.90;36.80;;;;;;;;;;5013043;28;20176;-81
2021/05/09 00:56:56;;;;;;;62.37;37.00;;;;;;;;;;5013118;28;20227;-81
2021/05/09 00:59:22;;;;;;;59.10;36.27;;;;;;;;;;5012938;28;20244;-81
2021/05/09 01:01:47;;;;;;;58.67;36.43;;;;;;;;;;5015246;28;20177;-81
2021/05/09 01:04:13;;;;;;;58.97;36.33;;;;;;;;;;5016246;28;20208;-81
2021/05/09 01:06:39;;;;;;;63.43;37.67;;;;;;;;;;5016563;28;20201;-81
2021/05/09 01:09:05;;;;;;;61.40;37.23;;;;;;;;;;5016975;28;20232;-81
2021/05/09 01:11:30;;;;;;;57.03;35.90;;;;;;;;;;5016296;28;20534;-81
2021/05/09 01:13:55;;;;;;;59.63;36.97;;;;;;;;;;5016356;28;20169;-81
2021/05/09 01:16:20;;;;;;;53.67;35.90;;;;;;;;;;5015913;28;20528;-81
2021/05/09 01:18:46;;;;;;;50.17;32.77;;;;;;;;;;5016199;28;20197;-81
2021/05/09 01:21:11;;;;;;;49.93;32.53;;;;;;;;;;4991831;28;716790;-81
2021/05/09 01:23:36;;;;;;;55.57;34.23;;;;;;;;;;5017470;28;20212;-81
2021/05/09 01:26:02;;;;;;;50.80;33.27;;;;;;;;;;5017153;28;20224;-81
2021/05/09 01:28:28;;;;;;;51.73;33.93;;;;;;;;;;5017422;28;20219;-81
2021/05/09 01:30:53;;;;;;;48.47;31.80;;;;;;;;;;5017010;28;20197;-81
2021/05/09 01:33:19;;;;;;;51.03;32.57;;;;;;;;;;5017045;28;20635;-81
2021/05/09 01:35:44;;;;;;;50.30;32.10;;;;;;;;;;5017570;28;20196;-81
2021/05/09 01:38:09;;;;;;;48.83;31.40;;;;;;;;;;5017162;28;20203;-81
2021/05/09 01:40:35;;;;;;;59.13;32.80;;;;;;;;;;5017181;28;20173;-81
2021/05/09 01:43:00;;;;;;;50.50;32.33;;;;;;;;;;5017600;28;20253;-81
2021/05/09 01:45:25;;;;;;;51.57;32.30;;;;;;;;;;5016756;28;20170;-81
2021/05/09 01:47:51;;;;;;;74.40;40.13;;;;;;;;;;5017363;28;20166;-81
2021/05/09 01:50:17;;;;;;;58.60;35.27;;;;;;;;;;5017021;28;20305;-81
2021/05/09 01:52:42;;;;;;;54.50;34.33;;;;;;;;;;5017056;28;20522;-81
2021/05/09 01:55:13;;;;;;;47.10;31.57;;;;;;;;;;5016898;28;20223;-81
2021/05/09 01:57:38;;;;;;;47.33;31.50;;;;;;;;;;5017628;28;20169;-81
2021/05/09 02:00:11;;;;;;;48.87;31.37;;;;;;;;;;5016498;28;20162;-81
2021/05/09 02:02:36;;;;;;;49.93;31.70;;;;;;;;;;5016471;28;20201;-81
2021/05/09 02:05:02;;;;;;;50.73;30.33;;;;;;;;;;5016516;28;20251;-81
2021/05/09 02:07:27;;;;;;;44.93;29.77;;;;;;;;;;5016965;28;20177;-81
2021/05/09 02:09:52;;;;;;;50.57;30.77;;;;;;;;;;5016699;28;20169;-81
2021/05/09 02:12:18;;;;;;;45.47;30.70;;;;;;;;;;5016410;28;20201;-82
2021/05/09 02:14:43;;;;;;;48.87;31.03;;;;;;;;;;5016847;28;20189;-82
2021/05/09 02:17:09;;;;;;;46.73;30.63;;;;;;;;;;5016767;28;20228;-82
2021/05/09 02:19:34;;;;;;;48.40;31.50;;;;;;;;;;5016533;28;20758;-82
2021/05/09 02:22:00;;;;;;;47.43;30.50;;;;;;;;;;5016256;28;20181;-81
2021/05/09 02:24:25;;;;;;;48.90;31.80;;;;;;;;;;5016011;28;20181;-82
2021/05/09 02:26:50;;;;;;;51.43;31.57;;;;;;;;;;5016630;28;20201;-81
2021/05/09 02:29:16;;;;;;;48.73;31.63;;;;;;;;;;5016724;28;20489;-81
2021/05/09 02:31:41;;;;;;;48.93;29.60;;;;;;;;;;5016196;28;20200;-81
2021/05/09 02:34:06;;;;;;;42.07;29.50;;;;;;;;;;5016165;28;20264;-81
2021/05/09 02:36:31;;;;;;;46.23;28.80;;;;;;;;;;5016628;28;20242;-81
2021/05/09 02:38:57;;;;;;;43.23;27.13;;;;;;;;;;5016300;28;20604;-81
2021/05/09 02:41:22;;;;;;;42.17;28.07;;;;;;;;;;5016124;28;20179;-81
2021/05/09 02:43:48;;;;;;;43.90;28.93;;;;;;;;;;5015875;28;20208;-81
2021/05/09 02:46:13;;;;;;;41.03;27.60;;;;;;;;;;5015622;28;20201;-81
2021/05/09 02:48:39;;;;;;;46.83;27.33;;;;;;;;;;5015572;28;20224;-82
2021/05/09 02:51:04;;;;;;;39.77;26.50;;;;;;;;;;5015830;28;20636;-82
2021/05/09 02:53:29;;;;;;;41.90;27.13;;;;;;;;;;5015792;28;20260;-81
2021/05/09 02:55:55;;;;;;;36.57;25.17;;;;;;;;;;5015551;28;20174;-81
2021/05/09 02:58:20;;;;;;;35.07;24.70;;;;;;;;;;5015925;28;20730;-81
2021/05/09 03:00:45;;;;;;;36.63;24.37;;;;;;;;;;5015664;28;20173;-81
2021/05/09 03:03:11;;;;;;;36.87;23.53;;;;;;;;;;5015556;28;20197;-81
2021/05/09 03:05:36;;;;;;;29.93;22.80;;;;;;;;;;5015169;28;20188;-81
2021/05/09 03:08:01;;;;;;;33.53;22.83;;;;;;;;;;5015808;28;20173;-81
2021/05/09 03:10:27;;;;;;;31.33;23.50;;;;;;;;;;5015215;28;20176;-81
2021/05/09 03:12:52;;;;;;;30.07;22.37;;;;;;;;;;5015814;28;20201;-81
2021/05/09 03:15:17;;;;;;;33.33;22.53;;;;;;;;;;5015709;28;20169;-81
2021/05/09 03:17:43;;;;;;;33.77;22.27;;;;;;;;;;5014921;28;20552;-81
2021/05/09 03:20:08;;;;;;;31.40;23.00;;;;;;;;;;5015106;28;20229;-81
2021/05/09 03:22:34;;;;;;;27.43;21.00;;;;;;;;;;5015465;28;20250;-81
2021/05/09 03:24:59;;;;;;;33.57;22.10;;;;;;;;;;5014975;28;20173;-81
2021/05/09 03:27:24;;;;;;;26.70;20.17;;;;;;;;;;5015291;28;20515;-81
2021/05/09 03:29:50;;;;;;;26.73;18.43;;;;;;;;;;5014841;28;20169;-81
2021/05/09 03:32:15;;;;;;;23.73;18.80;;;;;;;;;;5015101;28;20181;-81
2021/05/09 03:34:40;;;;;;;31.43;19.57;;;;;;;;;;5015051;28;20173;-81
2021/05/09 03:37:05;;;;;;;24.33;18.27;;;;;;;;;;5014680;28;20176;-81
2021/05/09 03:39:31;;;;;;;25.37;18.67;;;;;;;;;;5014931;28;20211;-81
2021/05/09 03:41:56;;;;;;;37.37;22.60;;;;;;;;;;5015262;28;20179;-81
2021/05/09 03:44:21;;;;;;;34.17;22.87;;;;;;;;;;5014761;28;20628;-81
2021/05/09 03:46:47;;;;;;;24.87;18.27;;;;;;;;;;5015449;28;20635;-81
2021/05/09 03:49:12;;;;;;;22.57;16.20;;;;;;;;;;5014757;28;20278;-81
2021/05/09 03:51:38;;;;;;;22.83;16.33;;;;;;;;;;5015100;28;20693;-81
2021/05/09 03:54:04;;;;;;;22.00;16.93;;;;;;;;;;5014768;28;20300;-81
2021/05/09 03:56:29;;;;;;;20.57;16.20;;;;;;;;;;5014436;28;20538;-81
2021/05/09 03:58:54;;;;;;;21.47;17.17;;;;;;;;;;5014285;28;20651;-81
2021/05/09 04:01:20;;;;;;;21.63;16.53;;;;;;;;;;5014860;28;20604;-81
2021/05/09 04:03:45;;;;;;;20.50;16.17;;;;;;;;;;5014804;28;20192;-81
2021/05/09 04:06:10;;;;;;;24.53;16.10;;;;;;;;;;5014242;28;20161;-81
2021/05/09 04:08:36;;;;;;;18.03;15.03;;;;;;;;;;5014459;28;20256;-82
2021/05/09 04:11:02;;;;;;;20.70;15.53;;;;;;;;;;5014126;28;20248;-82
2021/05/09 04:13:27;;;;;;;23.53;15.97;;;;;;;;;;5014362;28;20177;-82
2021/05/09 04:15:53;;;;;;;20.70;15.23;;;;;;;;;;5014243;28;20170;-82
2021/05/09 04:18:19;;;;;;;17.93;14.70;;;;;;;;;;5013991;28;20291;-82
2021/05/09 04:20:44;;;;;;;20.47;15.10;;;;;;;;;;5014513;28;20225;-82
2021/05/09 04:23:09;;;;;;;24.27;15.60;;;;;;;;;;5014227;28;20173;-82
2021/05/09 04:25:35;;;;;;;17.50;14.87;;;;;;;;;;5013939;28;20180;-82
2021/05/09 04:28:00;;;;;;;22.27;16.70;;;;;;;;;;5014461;28;20184;-83
2021/05/09 04:30:25;;;;;;;23.57;16.43;;;;;;;;;;5014429;28;20182;-82
2021/05/09 04:33:00;;;;;;;16.63;13.90;;;;;;;;;;5014185;28;20173;-82
2021/05/09 04:35:26;;;;;;;16.08;13.68;;;;;;;;;;5013915;28;20299;-83
2021/05/09 04:37:52;;;;;;;16.08;13.68;;;;;;;;;;5013990;28;20197;-82
2021/05/09 04:40:17;;;;;;;15.23;13.48;;;;;;;;;;5014186;28;20634;-81
2021/05/09 04:42:42;;;;;;;15.05;13.45;;;;;;;;;;5013718;28;20177;-81
2021/05/09 04:45:08;;;;;;;13.75;11.70;;;;;;;;;;5014407;28;20526;-82
2021/05/09 04:47:33;;;;;;;12.45;11.23;;;;;;;;;;4996455;28;20184;-82
2021/05/09 04:49:59;;;;;;;12.48;11.23;;;;;;;;;;5012860;28;20184;-82
2021/05/09 04:52:24;;;;;;;12.45;11.20;;;;;;;;;;5014075;28;20215;-82
2021/05/09 04:54:49;;;;;;;12.25;11.15;;;;;;;;;;5013925;28;20248;-82
2021/05/09 04:57:14;;;;;;;12.90;11.70;;;;;;;;;;5014195;28;20256;-82
2021/05/09 04:59:40;;;;;;;13.05;11.82;;;;;;;;;;5013380;28;20545;-83
2021/05/09 05:02:05;;;;;;;12.93;11.82;;;;;;;;;;5013618;28;20173;-83
2021/05/09 05:04:30;;;;;;;11.60;10.60;;;;;;;;;;5014670;28;20497;-83
2021/05/09 05:06:56;;;;;;;12.07;10.85;;;;;;;;;;5013980;28;20728;-83
2021/05/09 05:09:21;;;;;;;11.48;10.38;;;;;;;;;;5013822;28;20231;-83
2021/05/09 05:11:47;;;;;;;11.90;10.68;;;;;;;;;;5013834;28;20235;-82
2021/05/09 05:14:13;;;;;;;10.70;9.80;;;;;;;;;;5014036;28;20308;-83
2021/05/09 05:16:38;;;;;;;12.63;11.43;;;;;;;;;;5013580;28;20691;-83
2021/05/09 05:19:03;;;;;;;10.80;9.90;;;;;;;;;;5013678;28;20211;-83
2021/05/09 05:21:28;;;;;;;11.18;10.20;;;;;;;;;;5013896;28;20228;-83
2021/05/09 05:23:54;;;;;;;9.60;8.70;;;;;;;;;;5014052;28;20174;-83
2021/05/09 05:26:19;;;;;;;9.02;8.20;;;;;;;;;;5013614;28;20201;-84
2021/05/09 05:28:44;;;;;;;9.48;8.57;;;;;;;;;;5013589;28;20177;-84
2021/05/09 05:31:10;;;;;;;9.07;8.30;;;;;;;;;;5013710;28;20180;-84
2021/05/09 05:33:36;;;;;;;8.68;7.90;;;;;;;;;;5012333;28;20172;-84
2021/05/09 05:36:02;;;;;;;9.35;8.43;;;;;;;;;;5013597;28;20173;-84
2021/05/09 05:38:27;;;;;;;8.35;7.55;;;;;;;;;;5014042;28;20535;-83
2021/05/09 05:40:55;;;;;;;8.55;7.75;;;;;;;;;;5013502;28;20166;-83
2021/05/09 05:43:21;;;;;;;7.95;7.30;;;;;;;;;;5013350;28;20177;-84
2021/05/09 05:45:46;;;;;;;8.63;7.82;;;;;;;;;;5013769;28;20501;-84
2021/05/09 05:48:12;;;;;;;8.48;7.63;;;;;;;;;;5016894;28;20165;-84
2021/05/09 05:50:39;;;;;;;8.45;7.75;;;;;;;;;;5016920;28;20185;-84
2021/05/09 05:53:04;;;;;;;8.10;7.40;;;;;;;;;;5017162;28;20180;-84
2021/05/09 05:55:29;;;;;;;8.02;7.28;;;;;;;;;;5016875;28;20170;-84
2021/05/09 05:57:54;;;;;;;7.57;6.97;;;;;;;;;;5016440;28;20169;-84
2021/05/09 06:00:20;;;;;;;8.00;7.30;;;;;;;;;;5017156;28;20181;-84
2021/05/09 06:02:45;;;;;;;10.30;9.30;;;;;;;;;;5016686;28;20165;-84
2021/05/09 06:05:11;;;;;;;8.90;8.20;;;;;;;;;;5016958;28;20173;-84
2021/05/09 06:07:36;;;;;;;9.40;8.60;;;;;;;;;;5016706;28;20544;-84
2021/05/09 06:10:03;;;;;;;9.23;8.45;;;;;;;;;;5016644;28;20205;-85
2021/05/09 06:12:28;;;;;;;8.32;7.63;;;;;;;;;;5017160;28;20616;-85
2021/05/09 06:14:53;;;;;;;9.02;8.27;;;;;;;;;;5016500;28;20173;-85
2021/05/09 06:17:18;;;;;;;9.07;8.27;;;;;;;;;;5016387;28;20200;-85
2021/05/09 06:19:44;;;;;;;9.13;8.32;;;;;;;;;;5016164;28;20281;-83
2021/05/09 06:22:09;;;;;;;8.40;7.72;;;;;;;;;;5016090;28;20154;-84
2021/05/09 06:24:34;;;;;;;8.80;8.10;;;;;;;;;;5016615;28;20615;-84
2021/05/09 06:27:00;;;;;;;8.35;7.65;;;;;;;;;;5016362;28;20491;-84
2021/05/09 06:29:25;;;;;;;8.68;7.82;;;;;;;;;;5015985;28;20220;-84
2021/05/09 06:31:50;;;;;;;8.57;7.68;;;;;;;;;;5015899;28;20228;-84
2021/05/09 06:34:16;;;;;;;8.77;7.97;;;;;;;;;;5017002;28;20172;-84
2021/05/09 06:36:41;;;;;;;9.02;8.15;;;;;;;;;;5016067;28;20165;-84
2021/05/09 06:39:06;;;;;;;8.68;7.88;;;;;;;;;;5015821;28;20196;-84
2021/05/09 06:41:34;;;;;;;8.23;7.53;;;;;;;;;;5015909;28;20169;-84
2021/05/09 06:44:02;;;;;;;8.60;7.80;;;;;;;;;;5015995;28;20165;-84
2021/05/09 06:46:27;;;;;;;9.70;8.80;;;;;;;;;;5015871;28;20654;-83
2021/05/09 06:48:53;;;;;;;9.73;8.55;;;;;;;;;;5015751;28;20205;-83
2021/05/09 06:51:19;;;;;;;10.18;8.65;;;;;;;;;;5015860;28;20169;-84
2021/05/09 06:53:44;;;;;;;9.00;8.10;;;;;;;;;;5015807;28;20169;-84
2021/05/09 06:56:10;;;;;;;8.65;7.85;;;;;;;;;;5016361;28;20173;-84
2021/05/09 06:58:35;;;;;;;8.82;7.93;;;;;;;;;;5014473;28;20204;-83
2021/05/09 07:01:00;;;;;;;8.82;7.93;;;;;;;;;;5014284;28;20173;-82
2021/05/09 07:03:26;;;;;;;8.18;7.40;;;;;;;;;;5015573;28;20205;-83
2021/05/09 07:05:51;;;;;;;9.30;8.10;;;;;;;;;;4993592;28;20178;-83
2021/05/09 07:08:20;;;;;;;8.23;7.30;;;;;;;;;;4995192;28;20217;-83
2021/05/09 07:10:45;;;;;;;8.15;7.35;;;;;;;;;;4996530;28;20170;-83
2021/05/09 07:13:10;;;;;;;8.48;7.28;;;;;;;;;;4994462;28;20169;-83
2021/05/09 07:15:38;;;;;;;7.88;7.07;;;;;;;;;;4995846;28;20181;-83
2021/05/09 07:18:10;;;;;;;8.20;7.45;;;;;;;;;;4995438;28;20186;-84
2021/05/09 07:20:38;;;;;;;8.27;7.47;;;;;;;;;;5002424;28;20239;-83
2021/05/09 07:23:05;;;;;;;8.32;7.50;;;;;;;;;;5015348;28;20173;-84
2021/05/09 07:25:31;;;;;;;8.82;7.93;;;;;;;;;;5015513;28;20180;-83
2021/05/09 07:28:06;;;;;;;8.23;7.47;;;;;;;;;;5015034;28;20161;-83
2021/05/09 07:30:32;;;;;;;7.25;6.65;;;;;;;;;;5013788;28;20187;-83
2021/05/09 07:32:57;;;;;;;6.88;6.28;;;;;;;;;;5015279;28;20173;-84
2021/05/09 07:35:23;;;;;;;7.40;6.70;;;;;;;;;;5015380;28;20259;-83
2021/05/09 07:37:48;;;;;;;11.73;10.63;;;;;;;;;;5014715;28;20245;-82
2021/05/09 07:40:14;;;;;;;25.02;22.63;;;;;;;;;;5015072;28;20176;-85
2021/05/09 07:42:39;;;;;;;8.00;7.18;;;;;;;;;;5014864;28;20196;-84
2021/05/09 07:45:05;;;;;;;6.60;6.00;;;;;;;;;;5015520;28;20173;-83
2021/05/09 07:47:30;;;;;;;7.00;6.40;;;;;;;;;;5014487;28;20176;-81
2021/05/09 07:49:58;;;;;;;7.20;6.60;;;;;;;;;;5014924;28;20286;-81
2021/05/09 07:52:24;;;;;;;7.32;6.72;;;;;;;;;;5015247;28;20165;-83
2021/05/09 07:54:49;;;;;;;10.13;9.30;;;;;;;;;;5013928;28;20173;-83
2021/05/09 07:57:14;;;;;;;8.32;7.47;;;;;;;;;;5014565;28;20192;-84
2021/05/09 07:59:40;;;;;;;8.93;7.00;;;;;;;;;;5014595;28;20205;-84
2021/05/09 08:02:06;;;;;;;8.23;7.28;;;;;;;;;;5015115;28;20208;-85
2021/05/09 08:04:31;;;;;;;6.68;6.07;;;;;;;;;;4996993;28;20177;-85
2021/05/09 08:06:57;;;;;;;6.07;5.50;;;;;;;;;;5014420;28;20216;-85
2021/05/09 08:09:22;;;;;;;8.88;7.40;;;;;;;;;;5013733;28;20691;-85
2021/05/09 08:11:47;;;;;;;7.53;6.72;;;;;;;;;;5014266;28;20173;-85
2021/05/09 08:14:13;;;;;;;10.80;9.65;;;;;;;;;;5014028;28;20235;-85
2021/05/09 08:16:38;;;;;;;11.05;10.00;;;;;;;;;;5013951;28;20193;-84
2021/05/09 08:19:03;;;;;;;7.60;6.90;;;;;;;;;;5013491;28;20204;-93
2021/05/09 08:21:29;;;;;;;6.60;6.10;;;;;;;;;;5014166;28;20283;-84
2021/05/09 08:23:54;;;;;;;8.90;6.10;;;;;;;;;;5014604;28;20165;-84
2021/05/09 08:26:21;;;;;;;6.30;5.75;;;;;;;;;;5015221;28;20215;-84
2021/05/09 08:28:46;;;;;;;6.57;5.97;;;;;;;;;;5013223;28;20201;-85
2021/05/09 08:31:15;;;;;;;6.32;5.72;;;;;;;;;;5014520;28;20227;-85
2021/05/09 08:33:41;;;;;;;5.70;5.20;;;;;;;;;;5005785;28;20570;-84
2021/05/09 08:36:06;;;;;;;6.13;5.60;;;;;;;;;;4994256;28;20265;-85
2021/05/09 08:38:31;;;;;;;5.88;5.38;;;;;;;;;;4994689;28;20169;-84
2021/05/09 08:40:58;;;;;;;6.25;5.75;;;;;;;;;;4994343;28;20217;-85
2021/05/09 08:43:23;;;;;;;6.07;5.15;;;;;;;;;;4994685;28;20174;-85
2021/05/09 08:45:49;;;;;;;6.45;5.65;;;;;;;;;;4994424;28;20180;-85
2021/05/09 08:48:18;;;;;;;6.80;6.20;;;;;;;;;;4994544;28;20661;-85
2021/05/09 08:50:44;;;;;;;6.67;5.87;;;;;;;;;;5007431;28;20173;-85
2021/05/09 08:53:10;;;;;;;6.03;5.43;;;;;;;;;;5012724;28;20650;-85
2021/05/09 08:55:38;;;;;;;5.53;5.03;;;;;;;;;;5013487;28;20542;-84
2021/05/09 08:58:03;;;;;;;6.33;5.40;;;;;;;;;;5014156;28;20169;-85
2021/05/09 09:00:29;;;;;;;5.50;5.00;;;;;;;;;;5014011;28;20493;-84
2021/05/09 09:02:55;;;;;;;7.50;6.80;;;;;;;;;;5013063;28;20255;-84
2021/05/09 09:05:41;;;;;;;5.80;5.30;;;;;;;;;;5012588;28;20621;-83
2021/05/09 09:08:07;;;;;;;5.37;4.87;;;;;;;;;;5012898;28;20543;-84
2021/05/09 09:10:34;;;;;;;6.87;6.10;;;;;;;;;;5013097;28;20645;-83
2021/05/09 09:13:00;;;;;;;5.53;5.03;;;;;;;;;;5012873;28;20204;-84
2021/05/09 09:15:44;;;;;;;5.10;4.60;;;;;;;;;;4994984;28;20684;-84
2021/05/09 09:18:25;;;;;;;5.23;4.73;;;;;;;;;;4999976;28;20220;-84
2021/05/09 09:20:51;;;;;;;5.50;4.80;;;;;;;;;;5012306;28;20225;-85
2021/05/09 09:23:16;;;;;;;5.13;4.63;;;;;;;;;;5015147;28;20193;-85
2021/05/09 09:25:42;;;;;;;6.30;5.67;;;;;;;;;;5017986;28;20173;-85
2021/05/09 09:28:09;;;;;;;5.50;5.00;;;;;;;;;;5004793;28;20188;-85
2021/05/09 09:30:48;;;;;;;4.80;4.40;;;;;;;;;;5014090;28;20166;-85
2021/05/09 09:33:15;;;;;;;5.03;4.50;;;;;;;;;;4991911;28;20200;-85
2021/05/09 09:35:41;;;;;;;5.63;4.70;;;;;;;;;;5010402;28;20647;-85
2021/05/09 09:38:22;;;;;;;4.80;4.40;;;;;;;;;;5003277;28;20174;-85
2021/05/09 09:44:06;;;;;;;4.70;4.30;;;;;;;;;;5009437;28;20208;-84
2021/05/09 09:49:41;;;;;;;4.60;4.20;;;;;;;;;;5001815;28;20220;-84
2021/05/09 09:52:07;;;;;;;4.10;3.80;;;;;;;;;;5002331;28;20188;-84
2021/05/09 09:54:51;;;;;;;4.83;4.10;;;;;;;;;;5003003;28;20185;-85
2021/05/09 09:57:22;;;;;;;4.50;4.10;;;;;;;;;;4996852;28;20173;-85
2021/05/09 10:00:06;;;;;;;4.93;4.43;;;;;;;;;;4989561;28;20252;-84
2021/05/09 10:02:32;;;;;;;4.40;4.00;;;;;;;;;;5011883;28;20205;-84
2021/05/09 10:04:58;;;;;;;4.30;3.90;;;;;;;;;;5015162;28;20238;-84
2021/05/09 10:07:26;;;;;;;4.43;4.00;;;;;;;;;;5012341;28;20196;-84
2021/05/09 10:09:57;;;;;;;3.97;3.60;;;;;;;;;;5016515;28;20691;-85
2021/05/09 10:12:26;;;;;;;5.87;4.00;;;;;;;;;;4997388;28;20253;-84
2021/05/09 10:14:54;;;;;;;4.83;4.43;;;;;;;;;;4996544;28;20174;-85
2021/05/09 10:17:20;;;;;;;5.17;4.63;;;;;;;;;;4996619;28;20205;-85
2021/05/09 10:19:46;;;;;;;3.83;3.53;;;;;;;;;;4996696;28;20209;-86
2021/05/09 10:22:24;;;;;;;4.50;4.10;;;;;;;;;;5013065;28;20181;-86
2021/05/09 10:24:53;;;;;;;4.17;3.87;;;;;;;;;;5035542;28;20634;-84
2021/05/09 10:27:18;;;;;;;4.60;4.20;;;;;;;;;;5036346;28;20619;-84
2021/05/09 10:29:45;;;;;;;4.00;3.67;;;;;;;;;;5035511;28;20204;-85
2021/05/09 10:32:23;;;;;;;4.50;4.10;;;;;;;;;;5033615;28;20267;-84
2021/05/09 10:34:51;;;;;;;4.53;4.13;;;;;;;;;;5035412;28;20623;-83
2021/05/09 10:40:37;;;;;;;4.00;3.70;;;;;;;;;;5024935;28;20643;-83
2021/05/09 10:43:07;;;;;;;4.30;4.00;;;;;;;;;;4936372;29;20179;-83
2021/05/09 10:45:39;;;;;;;4.40;4.00;;;;;;;;;;5017874;28;20184;-84
2021/05/09 10:50:42;;;;;;;4.57;4.20;;;;;;;;;;5035594;28;20218;-85
2021/05/09 10:53:07;;;;;;;4.43;4.03;;;;;;;;;;5035641;28;20567;-84
2021/05/09 10:55:36;;;;;;;4.33;3.93;;;;;;;;;;5035613;28;20170;-84
2021/05/09 10:58:04;;;;;;;4.80;4.40;;;;;;;;;;5035233;28;20196;-85
2021/05/09 11:00:49;;;;;;;5.60;4.17;;;;;;;;;;5035418;28;20517;-85
2021/05/09 11:03:33;;;;;;;3.90;3.60;;;;;;;;;;5035114;28;20175;-83
2021/05/09 11:06:02;;;;;;;3.90;3.60;;;;;;;;;;5035460;28;20180;-84
2021/05/09 11:08:42;;;;;;;3.93;3.53;;;;;;;;;;5035037;28;20208;-83
